sensor_id;sensor_type;location;lat;lon;timestamp;temperature;humidity
25504;DHT22;13410;52.114;5.718;2023-09-19T00:00:21;19.70;99.90
25504;DHT22;13410;52.114;5.718;2023-09-19T00:02:55;19.60;99.90
25504;DHT22;13410;52.114;5.718;2023-09-19T00:05:25;19.50;99.90
25504;DHT22;13410;52.114;5.718;2023-09-19T00:07:53;19.40;99.90
25504;DHT22;13410;52.114;5.718;2023-09-19T00:10:21;19.40;99.90
25504;DHT22;13410;52.114;5.718;2023-09-19T00:12:47;19.30;99.90
25504;DHT22;13410;52.114;5.718;2023-09-19T00:15:13;19.20;99.90
25504;DHT22;13410;52.114;5.718;2023-09-19T00:17:43;19.20;99.90
25504;DHT22;13410;52.114;5.718;2023-09-19T00:20:09;19.20;99.90
25504;DHT22;13410;52.114;5.718;2023-09-19T00:22:41;19.20;99.90
25504;DHT22;13410;52.114;5.718;2023-09-19T00:25:10;19.20;99.90
25504;DHT22;13410;52.114;5.718;2023-09-19T00:27:37;19.10;99.90
25504;DHT22;13410;52.114;5.718;2023-09-19T00:30:08;19.20;99.90
25504;DHT22;13410;52.114;5.718;2023-09-19T00:32:40;19.30;99.90
25504;DHT22;13410;52.114;5.718;2023-09-19T00:35:06;19.30;99.90
25504;DHT22;13410;52.114;5.718;2023-09-19T00:37:34;19.20;99.90
25504;DHT22;13410;52.114;5.718;2023-09-19T00:40:00;19.20;99.90
25504;DHT22;13410;52.114;5.718;2023-09-19T00:42:25;19.30;99.90
25504;DHT22;13410;52.114;5.718;2023-09-19T00:44:51;19.30;99.90
25504;DHT22;13410;52.114;5.718;2023-09-19T00:47:18;19.20;99.90
25504;DHT22;13410;52.114;5.718;2023-09-19T00:49:45;19.20;99.90
25504;DHT22;13410;52.114;5.718;2023-09-19T00:52:16;19.30;99.90
25504;DHT22;13410;52.114;5.718;2023-09-19T00:54:46;19.20;99.90
25504;DHT22;13410;52.114;5.718;2023-09-19T00:57:12;19.30;99.90
25504;DHT22;13410;52.114;5.718;2023-09-19T00:59:40;19.40;99.90
25504;DHT22;13410;52.114;5.718;2023-09-19T01:02:07;19.40;99.90
25504;DHT22;13410;52.114;5.718;2023-09-19T01:04:34;19.30;99.90
25504;DHT22;13410;52.114;5.718;2023-09-19T01:06:59;19.30;99.90
25504;DHT22;13410;52.114;5.718;2023-09-19T01:09:25;19.50;99.90
25504;DHT22;13410;52.114;5.718;2023-09-19T01:11:54;19.50;99.90
25504;DHT22;13410;52.114;5.718;2023-09-19T01:14:52;19.40;99.90
25504;DHT22;13410;52.114;5.718;2023-09-19T01:17:25;19.40;99.90
25504;DHT22;13410;52.114;5.718;2023-09-19T01:22:48;19.50;99.90
25504;DHT22;13410;52.114;5.718;2023-09-19T01:30:35;19.50;99.90
25504;DHT22;13410;52.114;5.718;2023-09-19T01:33:05;19.50;99.90
25504;DHT22;13410;52.114;5.718;2023-09-19T01:35:31;19.50;99.90
25504;DHT22;13410;52.114;5.718;2023-09-19T01:37:58;19.60;99.90
25504;DHT22;13410;52.114;5.718;2023-09-19T01:40:24;19.60;99.90
25504;DHT22;13410;52.114;5.718;2023-09-19T01:42:57;19.60;99.90
25504;DHT22;13410;52.114;5.718;2023-09-19T01:45:34;19.60;99.90
25504;DHT22;13410;52.114;5.718;2023-09-19T01:50:55;19.50;99.90
25504;DHT22;13410;52.114;5.718;2023-09-19T01:53:27;19.50;99.90
25504;DHT22;13410;52.114;5.718;2023-09-19T01:55:57;19.50;99.90
25504;DHT22;13410;52.114;5.718;2023-09-19T01:58:44;19.50;99.90
25504;DHT22;13410;52.114;5.718;2023-09-19T02:01:18;19.40;99.90
25504;DHT22;13410;52.114;5.718;2023-09-19T02:03:46;19.40;99.90
25504;DHT22;13410;52.114;5.718;2023-09-19T02:06:16;19.20;99.90
25504;DHT22;13410;52.114;5.718;2023-09-19T02:08:43;19.20;99.90
25504;DHT22;13410;52.114;5.718;2023-09-19T02:11:08;19.20;99.90
25504;DHT22;13410;52.114;5.718;2023-09-19T02:13:34;19.20;99.90
25504;DHT22;13410;52.114;5.718;2023-09-19T02:16:00;19.00;99.90
25504;DHT22;13410;52.114;5.718;2023-09-19T02:18:25;19.00;99.90
25504;DHT22;13410;52.114;5.718;2023-09-19T02:20:53;19.10;99.90
25504;DHT22;13410;52.114;5.718;2023-09-19T02:23:20;18.90;99.90
25504;DHT22;13410;52.114;5.718;2023-09-19T02:25:54;18.90;99.90
25504;DHT22;13410;52.114;5.718;2023-09-19T02:28:20;18.90;99.90
25504;DHT22;13410;52.114;5.718;2023-09-19T02:30:49;18.80;99.90
25504;DHT22;13410;52.114;5.718;2023-09-19T02:33:15;18.80;99.90
25504;DHT22;13410;52.114;5.718;2023-09-19T02:35:42;18.80;99.90
25504;DHT22;13410;52.114;5.718;2023-09-19T02:38:08;18.80;99.90
25504;DHT22;13410;52.114;5.718;2023-09-19T02:40:33;18.60;99.90
25504;DHT22;13410;52.114;5.718;2023-09-19T02:43:01;18.70;99.90
25504;DHT22;13410;52.114;5.718;2023-09-19T02:45:27;18.50;99.90
25504;DHT22;13410;52.114;5.718;2023-09-19T02:47:53;18.50;99.90
25504;DHT22;13410;52.114;5.718;2023-09-19T02:50:18;18.50;99.90
25504;DHT22;13410;52.114;5.718;2023-09-19T02:52:45;18.50;99.90
25504;DHT22;13410;52.114;5.718;2023-09-19T02:55:15;18.50;99.90
25504;DHT22;13410;52.114;5.718;2023-09-19T02:58:03;18.50;99.90
25504;DHT22;13410;52.114;5.718;2023-09-19T03:00:30;18.50;99.90
25504;DHT22;13410;52.114;5.718;2023-09-19T03:02:56;18.50;99.90
25504;DHT22;13410;52.114;5.718;2023-09-19T03:05:23;18.40;99.90
25504;DHT22;13410;52.114;5.718;2023-09-19T03:07:49;18.40;99.90
25504;DHT22;13410;52.114;5.718;2023-09-19T03:10:18;18.30;99.90
25504;DHT22;13410;52.114;5.718;2023-09-19T03:12:44;18.20;99.90
25504;DHT22;13410;52.114;5.718;2023-09-19T03:15:10;18.20;99.90
25504;DHT22;13410;52.114;5.718;2023-09-19T03:17:36;18.20;99.90
25504;DHT22;13410;52.114;5.718;2023-09-19T03:20:03;18.30;99.90
25504;DHT22;13410;52.114;5.718;2023-09-19T03:22:29;18.20;99.90
25504;DHT22;13410;52.114;5.718;2023-09-19T03:24:55;18.10;99.90
25504;DHT22;13410;52.114;5.718;2023-09-19T03:27:20;18.00;99.90
25504;DHT22;13410;52.114;5.718;2023-09-19T03:29:46;17.90;99.90
25504;DHT22;13410;52.114;5.718;2023-09-19T03:32:12;17.90;99.90
25504;DHT22;13410;52.114;5.718;2023-09-19T03:34:38;17.80;99.90
25504;DHT22;13410;52.114;5.718;2023-09-19T03:37:09;17.80;99.90
25504;DHT22;13410;52.114;5.718;2023-09-19T03:39:34;17.90;99.90
25504;DHT22;13410;52.114;5.718;2023-09-19T03:42:01;17.90;99.90
25504;DHT22;13410;52.114;5.718;2023-09-19T03:44:29;17.90;99.90
25504;DHT22;13410;52.114;5.718;2023-09-19T03:46:55;17.70;99.90
25504;DHT22;13410;52.114;5.718;2023-09-19T03:49:23;17.80;99.90
25504;DHT22;13410;52.114;5.718;2023-09-19T03:51:48;17.70;99.90
25504;DHT22;13410;52.114;5.718;2023-09-19T03:54:14;17.80;99.90
25504;DHT22;13410;52.114;5.718;2023-09-19T03:56:39;17.60;99.90
25504;DHT22;13410;52.114;5.718;2023-09-19T03:59:05;17.60;99.90
25504;DHT22;13410;52.114;5.718;2023-09-19T04:01:31;17.60;99.90
25504;DHT22;13410;52.114;5.718;2023-09-19T04:03:59;17.40;99.90
25504;DHT22;13410;52.114;5.718;2023-09-19T04:06:33;17.40;99.90
25504;DHT22;13410;52.114;5.718;2023-09-19T04:09:00;17.50;99.90
25504;DHT22;13410;52.114;5.718;2023-09-19T04:11:26;17.30;99.90
25504;DHT22;13410;52.114;5.718;2023-09-19T04:13:51;17.40;99.90
25504;DHT22;13410;52.114;5.718;2023-09-19T04:16:17;17.40;99.90
25504;DHT22;13410;52.114;5.718;2023-09-19T04:18:43;17.40;99.90
25504;DHT22;13410;52.114;5.718;2023-09-19T04:21:08;17.40;99.90
25504;DHT22;13410;52.114;5.718;2023-09-19T04:23:34;17.30;99.90
25504;DHT22;13410;52.114;5.718;2023-09-19T04:26:00;17.30;99.90
25504;DHT22;13410;52.114;5.718;2023-09-19T04:28:25;17.50;99.90
25504;DHT22;13410;52.114;5.718;2023-09-19T04:30:53;17.40;99.90
25504;DHT22;13410;52.114;5.718;2023-09-19T04:33:18;17.40;99.90
25504;DHT22;13410;52.114;5.718;2023-09-19T04:35:44;17.40;99.90
25504;DHT22;13410;52.114;5.718;2023-09-19T04:38:09;17.40;99.90
25504;DHT22;13410;52.114;5.718;2023-09-19T04:40:35;17.40;99.90
25504;DHT22;13410;52.114;5.718;2023-09-19T04:43:01;17.50;99.90
25504;DHT22;13410;52.114;5.718;2023-09-19T04:45:27;17.40;99.90
25504;DHT22;13410;52.114;5.718;2023-09-19T04:47:54;17.30;99.90
25504;DHT22;13410;52.114;5.718;2023-09-19T04:50:20;17.20;99.90
25504;DHT22;13410;52.114;5.718;2023-09-19T04:52:49;17.10;99.90
25504;DHT22;13410;52.114;5.718;2023-09-19T04:55:17;17.20;99.90
25504;DHT22;13410;52.114;5.718;2023-09-19T04:57:44;17.30;99.90
25504;DHT22;13410;52.114;5.718;2023-09-19T05:00:14;17.30;99.90
25504;DHT22;13410;52.114;5.718;2023-09-19T05:02:41;17.20;99.90
25504;DHT22;13410;52.114;5.718;2023-09-19T05:05:08;17.30;99.90
25504;DHT22;13410;52.114;5.718;2023-09-19T05:07:34;17.40;99.90
25504;DHT22;13410;52.114;5.718;2023-09-19T05:10:00;17.50;99.90
25504;DHT22;13410;52.114;5.718;2023-09-19T05:12:28;17.40;99.90
25504;DHT22;13410;52.114;5.718;2023-09-19T05:14:55;17.40;99.90
25504;DHT22;13410;52.114;5.718;2023-09-19T05:17:20;17.30;99.90
25504;DHT22;13410;52.114;5.718;2023-09-19T05:19:46;17.20;99.90
25504;DHT22;13410;52.114;5.718;2023-09-19T05:22:12;17.30;99.90
25504;DHT22;13410;52.114;5.718;2023-09-19T05:24:38;17.30;99.90
25504;DHT22;13410;52.114;5.718;2023-09-19T05:27:04;17.50;99.90
25504;DHT22;13410;52.114;5.718;2023-09-19T05:29:29;17.30;99.90
25504;DHT22;13410;52.114;5.718;2023-09-19T05:31:55;17.30;99.90
25504;DHT22;13410;52.114;5.718;2023-09-19T05:34:20;17.40;99.90
25504;DHT22;13410;52.114;5.718;2023-09-19T05:36:46;17.50;99.90
25504;DHT22;13410;52.114;5.718;2023-09-19T05:39:14;17.70;99.90
25504;DHT22;13410;52.114;5.718;2023-09-19T05:41:40;17.60;99.90
25504;DHT22;13410;52.114;5.718;2023-09-19T05:44:05;17.50;99.90
25504;DHT22;13410;52.114;5.718;2023-09-19T05:46:32;17.60;99.90
25504;DHT22;13410;52.114;5.718;2023-09-19T05:48:58;17.70;99.90
25504;DHT22;13410;52.114;5.718;2023-09-19T05:51:23;17.80;99.90
25504;DHT22;13410;52.114;5.718;2023-09-19T05:53:49;17.90;99.90
25504;DHT22;13410;52.114;5.718;2023-09-19T05:56:15;17.70;99.90
25504;DHT22;13410;52.114;5.718;2023-09-19T05:58:41;17.80;99.90
25504;DHT22;13410;52.114;5.718;2023-09-19T06:01:09;17.80;99.90
25504;DHT22;13410;52.114;5.718;2023-09-19T06:03:35;17.80;99.90
25504;DHT22;13410;52.114;5.718;2023-09-19T06:06:02;17.80;99.90
25504;DHT22;13410;52.114;5.718;2023-09-19T06:08:27;17.80;99.90
25504;DHT22;13410;52.114;5.718;2023-09-19T06:10:54;17.90;99.90
25504;DHT22;13410;52.114;5.718;2023-09-19T06:13:19;17.90;99.90
25504;DHT22;13410;52.114;5.718;2023-09-19T06:15:46;17.90;99.90
25504;DHT22;13410;52.114;5.718;2023-09-19T06:18:12;17.90;99.90
25504;DHT22;13410;52.114;5.718;2023-09-19T06:20:48;17.90;99.90
25504;DHT22;13410;52.114;5.718;2023-09-19T06:23:14;18.00;99.90
25504;DHT22;13410;52.114;5.718;2023-09-19T06:25:40;18.00;99.90
25504;DHT22;13410;52.114;5.718;2023-09-19T06:28:06;18.00;99.90
25504;DHT22;13410;52.114;5.718;2023-09-19T06:30:33;18.20;99.90
25504;DHT22;13410;52.114;5.718;2023-09-19T06:33:01;18.30;99.90
25504;DHT22;13410;52.114;5.718;2023-09-19T06:35:35;18.40;99.90
25504;DHT22;13410;52.114;5.718;2023-09-19T06:38:04;18.40;99.90
25504;DHT22;13410;52.114;5.718;2023-09-19T06:40:29;18.60;99.90
25504;DHT22;13410;52.114;5.718;2023-09-19T06:42:56;18.60;99.90
25504;DHT22;13410;52.114;5.718;2023-09-19T06:45:22;18.80;99.90
25504;DHT22;13410;52.114;5.718;2023-09-19T06:47:49;18.90;99.90
25504;DHT22;13410;52.114;5.718;2023-09-19T06:50:18;19.00;99.90
25504;DHT22;13410;52.114;5.718;2023-09-19T06:52:45;19.00;99.90
25504;DHT22;13410;52.114;5.718;2023-09-19T06:55:14;19.10;99.90
25504;DHT22;13410;52.114;5.718;2023-09-19T06:57:42;19.10;99.90
25504;DHT22;13410;52.114;5.718;2023-09-19T07:00:09;19.10;99.90
25504;DHT22;13410;52.114;5.718;2023-09-19T07:02:41;19.20;99.90
25504;DHT22;13410;52.114;5.718;2023-09-19T07:05:06;19.20;99.90
25504;DHT22;13410;52.114;5.718;2023-09-19T07:07:32;19.30;99.90
25504;DHT22;13410;52.114;5.718;2023-09-19T07:10:03;19.50;99.90
25504;DHT22;13410;52.114;5.718;2023-09-19T07:12:33;19.50;99.90
25504;DHT22;13410;52.114;5.718;2023-09-19T07:15:00;19.50;99.90
25504;DHT22;13410;52.114;5.718;2023-09-19T07:17:26;19.60;99.90
25504;DHT22;13410;52.114;5.718;2023-09-19T07:19:53;19.70;99.90
25504;DHT22;13410;52.114;5.718;2023-09-19T07:22:18;19.80;99.90
25504;DHT22;13410;52.114;5.718;2023-09-19T07:24:44;20.00;99.90
25504;DHT22;13410;52.114;5.718;2023-09-19T07:27:10;20.10;99.90
25504;DHT22;13410;52.114;5.718;2023-09-19T07:29:36;20.20;99.90
25504;DHT22;13410;52.114;5.718;2023-09-19T07:32:03;20.10;99.90
25504;DHT22;13410;52.114;5.718;2023-09-19T07:34:28;20.20;99.90
25504;DHT22;13410;52.114;5.718;2023-09-19T07:36:54;20.30;99.90
25504;DHT22;13410;52.114;5.718;2023-09-19T07:39:22;20.50;99.90
25504;DHT22;13410;52.114;5.718;2023-09-19T07:41:48;20.50;99.90
25504;DHT22;13410;52.114;5.718;2023-09-19T07:44:15;20.40;99.90
25504;DHT22;13410;52.114;5.718;2023-09-19T07:46:40;20.40;99.90
25504;DHT22;13410;52.114;5.718;2023-09-19T07:49:06;20.40;99.90
25504;DHT22;13410;52.114;5.718;2023-09-19T07:51:31;20.40;99.90
25504;DHT22;13410;52.114;5.718;2023-09-19T07:53:58;20.30;99.90
25504;DHT22;13410;52.114;5.718;2023-09-19T07:56:24;20.30;99.90
25504;DHT22;13410;52.114;5.718;2023-09-19T07:58:51;20.30;99.90
25504;DHT22;13410;52.114;5.718;2023-09-19T08:01:17;20.30;99.90
25504;DHT22;13410;52.114;5.718;2023-09-19T08:03:42;20.40;99.90
25504;DHT22;13410;52.114;5.718;2023-09-19T08:06:09;20.40;99.90
25504;DHT22;13410;52.114;5.718;2023-09-19T08:08:35;20.40;99.90
25504;DHT22;13410;52.114;5.718;2023-09-19T08:11:04;20.70;99.90
25504;DHT22;13410;52.114;5.718;2023-09-19T08:13:39;20.70;99.90
25504;DHT22;13410;52.114;5.718;2023-09-19T08:16:11;20.50;99.90
25504;DHT22;13410;52.114;5.718;2023-09-19T08:18:37;20.50;99.90
25504;DHT22;13410;52.114;5.718;2023-09-19T08:21:06;20.50;99.90
25504;DHT22;13410;52.114;5.718;2023-09-19T08:23:39;20.60;99.90
25504;DHT22;13410;52.114;5.718;2023-09-19T08:26:05;20.80;99.90
25504;DHT22;13410;52.114;5.718;2023-09-19T08:28:35;20.60;99.90
25504;DHT22;13410;52.114;5.718;2023-09-19T08:31:04;20.70;99.90
25504;DHT22;13410;52.114;5.718;2023-09-19T08:33:32;20.60;99.90
25504;DHT22;13410;52.114;5.718;2023-09-19T08:35:57;20.70;99.90
25504;DHT22;13410;52.114;5.718;2023-09-19T08:38:23;21.00;99.90
25504;DHT22;13410;52.114;5.718;2023-09-19T08:40:48;21.20;99.90
25504;DHT22;13410;52.114;5.718;2023-09-19T08:43:14;21.20;99.90
25504;DHT22;13410;52.114;5.718;2023-09-19T08:45:40;21.40;99.90
25504;DHT22;13410;52.114;5.718;2023-09-19T08:51:06;21.40;99.90
25504;DHT22;13410;52.114;5.718;2023-09-19T08:56:17;21.60;99.90
25504;DHT22;13410;52.114;5.718;2023-09-19T08:59:04;21.80;99.90
25504;DHT22;13410;52.114;5.718;2023-09-19T09:01:33;22.00;99.90
25504;DHT22;13410;52.114;5.718;2023-09-19T09:03:59;22.00;99.90
25504;DHT22;13410;52.114;5.718;2023-09-19T09:06:26;22.00;99.90
25504;DHT22;13410;52.114;5.718;2023-09-19T09:08:53;22.00;99.90
25504;DHT22;13410;52.114;5.718;2023-09-19T09:11:20;22.10;99.90
25504;DHT22;13410;52.114;5.718;2023-09-19T09:13:47;22.20;99.90
25504;DHT22;13410;52.114;5.718;2023-09-19T09:16:13;22.40;99.90
25504;DHT22;13410;52.114;5.718;2023-09-19T09:18:44;22.70;99.90
25504;DHT22;13410;52.114;5.718;2023-09-19T09:21:11;23.10;99.90
25504;DHT22;13410;52.114;5.718;2023-09-19T09:23:36;23.40;99.90
25504;DHT22;13410;52.114;5.718;2023-09-19T09:26:02;23.30;99.90
25504;DHT22;13410;52.114;5.718;2023-09-19T09:28:30;23.40;99.90
25504;DHT22;13410;52.114;5.718;2023-09-19T09:30:59;23.40;99.90
25504;DHT22;13410;52.114;5.718;2023-09-19T09:33:25;23.30;99.90
25504;DHT22;13410;52.114;5.718;2023-09-19T09:35:55;23.20;99.90
25504;DHT22;13410;52.114;5.718;2023-09-19T09:38:27;23.30;99.90
25504;DHT22;13410;52.114;5.718;2023-09-19T09:40:55;23.30;99.90
25504;DHT22;13410;52.114;5.718;2023-09-19T09:43:42;23.60;99.90
25504;DHT22;13410;52.114;5.718;2023-09-19T09:46:18;23.40;99.90
25504;DHT22;13410;52.114;5.718;2023-09-19T09:49:03;23.40;99.90
25504;DHT22;13410;52.114;5.718;2023-09-19T09:51:58;23.50;99.90
25504;DHT22;13410;52.114;5.718;2023-09-19T09:54:25;23.50;99.90
25504;DHT22;13410;52.114;5.718;2023-09-19T09:57:01;23.40;99.90
25504;DHT22;13410;52.114;5.718;2023-09-19T09:59:58;23.40;99.90
25504;DHT22;13410;52.114;5.718;2023-09-19T10:02:29;23.40;99.90
25504;DHT22;13410;52.114;5.718;2023-09-19T10:04:58;23.40;99.90
25504;DHT22;13410;52.114;5.718;2023-09-19T10:07:31;23.30;99.90
25504;DHT22;13410;52.114;5.718;2023-09-19T10:10:34;23.30;99.90
25504;DHT22;13410;52.114;5.718;2023-09-19T10:13:10;23.40;99.90
25504;DHT22;13410;52.114;5.718;2023-09-19T10:15:51;23.80;99.90
25504;DHT22;13410;52.114;5.718;2023-09-19T10:18:23;23.70;99.90
25504;DHT22;13410;52.114;5.718;2023-09-19T10:20:49;23.80;99.90
25504;DHT22;13410;52.114;5.718;2023-09-19T10:23:17;23.40;99.90
25504;DHT22;13410;52.114;5.718;2023-09-19T10:25:48;23.50;99.90
25504;DHT22;13410;52.114;5.718;2023-09-19T10:28:16;23.60;99.90
25504;DHT22;13410;52.114;5.718;2023-09-19T10:30:48;23.70;99.90
25504;DHT22;13410;52.114;5.718;2023-09-19T10:33:17;23.90;99.90
25504;DHT22;13410;52.114;5.718;2023-09-19T10:35:45;24.00;99.90
25504;DHT22;13410;52.114;5.718;2023-09-19T10:38:12;24.10;99.90
25504;DHT22;13410;52.114;5.718;2023-09-19T10:40:39;24.00;99.90
25504;DHT22;13410;52.114;5.718;2023-09-19T10:43:21;24.00;99.90
25504;DHT22;13410;52.114;5.718;2023-09-19T10:45:51;24.00;99.90
25504;DHT22;13410;52.114;5.718;2023-09-19T10:48:19;23.70;99.90
25504;DHT22;13410;52.114;5.718;2023-09-19T10:53:26;23.60;99.90
25504;DHT22;13410;52.114;5.718;2023-09-19T10:55:56;23.30;99.90
25504;DHT22;13410;52.114;5.718;2023-09-19T10:58:27;23.50;99.90
25504;DHT22;13410;52.114;5.718;2023-09-19T11:00:56;23.50;99.90
25504;DHT22;13410;52.114;5.718;2023-09-19T11:03:23;23.60;99.90
25504;DHT22;13410;52.114;5.718;2023-09-19T11:06:16;23.90;99.90
25504;DHT22;13410;52.114;5.718;2023-09-19T11:09:01;23.90;99.90
25504;DHT22;13410;52.114;5.718;2023-09-19T11:30:51;24.70;99.90
25504;DHT22;13410;52.114;5.718;2023-09-19T11:33:33;24.90;99.90
25504;DHT22;13410;52.114;5.718;2023-09-19T11:41:37;24.70;99.90
25504;DHT22;13410;52.114;5.718;2023-09-19T11:46:33;24.50;99.90
25504;DHT22;13410;52.114;5.718;2023-09-19T11:49:09;24.40;99.90
25504;DHT22;13410;52.114;5.718;2023-09-19T11:51:42;24.80;99.90
25504;DHT22;13410;52.114;5.718;2023-09-19T11:54:12;24.80;99.90
25504;DHT22;13410;52.114;5.718;2023-09-19T11:56:45;24.80;99.90
25504;DHT22;13410;52.114;5.718;2023-09-19T11:59:11;24.50;99.90
25504;DHT22;13410;52.114;5.718;2023-09-19T12:01:38;24.10;99.90
25504;DHT22;13410;52.114;5.718;2023-09-19T12:04:11;24.00;99.90
25504;DHT22;13410;52.114;5.718;2023-09-19T12:06:37;23.80;99.90
25504;DHT22;13410;52.114;5.718;2023-09-19T12:09:12;24.10;99.90
25504;DHT22;13410;52.114;5.718;2023-09-19T12:11:43;24.40;99.90
25504;DHT22;13410;52.114;5.718;2023-09-19T12:14:12;24.60;99.90
25504;DHT22;13410;52.114;5.718;2023-09-19T12:16:53;24.90;99.90
25504;DHT22;13410;52.114;5.718;2023-09-19T12:19:21;25.30;99.90
25504;DHT22;13410;52.114;5.718;2023-09-19T12:22:01;25.50;99.90
25504;DHT22;13410;52.114;5.718;2023-09-19T12:24:32;25.30;99.90
25504;DHT22;13410;52.114;5.718;2023-09-19T12:27:06;24.90;99.90
25504;DHT22;13410;52.114;5.718;2023-09-19T12:32:35;24.70;99.90
25504;DHT22;13410;52.114;5.718;2023-09-19T12:35:01;24.50;99.90
25504;DHT22;13410;52.114;5.718;2023-09-19T12:37:32;24.40;99.90
25504;DHT22;13410;52.114;5.718;2023-09-19T12:40:09;24.50;99.90
25504;DHT22;13410;52.114;5.718;2023-09-19T12:42:48;24.50;99.90
25504;DHT22;13410;52.114;5.718;2023-09-19T12:45:17;24.20;99.90
25504;DHT22;13410;52.114;5.718;2023-09-19T12:48:21;24.10;99.90
25504;DHT22;13410;52.114;5.718;2023-09-19T12:51:04;24.00;99.90
25504;DHT22;13410;52.114;5.718;2023-09-19T12:53:32;24.00;99.90
25504;DHT22;13410;52.114;5.718;2023-09-19T12:56:00;24.20;99.90
25504;DHT22;13410;52.114;5.718;2023-09-19T12:58:25;24.30;99.90
25504;DHT22;13410;52.114;5.718;2023-09-19T13:00:52;24.50;99.90
25504;DHT22;13410;52.114;5.718;2023-09-19T13:03:18;24.30;99.90
25504;DHT22;13410;52.114;5.718;2023-09-19T13:05:56;24.40;99.90
25504;DHT22;13410;52.114;5.718;2023-09-19T13:08:31;24.40;99.90
25504;DHT22;13410;52.114;5.718;2023-09-19T13:11:17;24.40;99.90
25504;DHT22;13410;52.114;5.718;2023-09-19T13:14:19;24.20;99.90
25504;DHT22;13410;52.114;5.718;2023-09-19T13:17:05;24.10;99.90
25504;DHT22;13410;52.114;5.718;2023-09-19T13:19:42;24.00;99.90
25504;DHT22;13410;52.114;5.718;2023-09-19T13:22:39;24.10;99.90
25504;DHT22;13410;52.114;5.718;2023-09-19T13:25:09;24.00;99.90
25504;DHT22;13410;52.114;5.718;2023-09-19T13:27:48;23.90;99.90
25504;DHT22;13410;52.114;5.718;2023-09-19T13:30:17;23.90;99.90
25504;DHT22;13410;52.114;5.718;2023-09-19T13:32:44;24.00;99.90
25504;DHT22;13410;52.114;5.718;2023-09-19T13:35:10;24.10;99.90
25504;DHT22;13410;52.114;5.718;2023-09-19T13:37:38;24.20;99.90
25504;DHT22;13410;52.114;5.718;2023-09-19T13:40:10;24.30;99.90
25504;DHT22;13410;52.114;5.718;2023-09-19T13:42:37;24.20;99.90
25504;DHT22;13410;52.114;5.718;2023-09-19T13:45:03;24.20;99.90
25504;DHT22;13410;52.114;5.718;2023-09-19T13:47:33;23.90;99.90
25504;DHT22;13410;52.114;5.718;2023-09-19T13:50:02;23.70;99.90
25504;DHT22;13410;52.114;5.718;2023-09-19T13:52:40;23.70;99.90
25504;DHT22;13410;52.114;5.718;2023-09-19T13:55:05;23.90;99.90
25504;DHT22;13410;52.114;5.718;2023-09-19T13:57:32;24.00;99.90
25504;DHT22;13410;52.114;5.718;2023-09-19T13:59:58;24.00;99.90
25504;DHT22;13410;52.114;5.718;2023-09-19T14:02:24;24.30;99.90
25504;DHT22;13410;52.114;5.718;2023-09-19T14:04:53;24.40;99.90
25504;DHT22;13410;52.114;5.718;2023-09-19T14:07:18;24.60;99.90
25504;DHT22;13410;52.114;5.718;2023-09-19T14:09:45;24.80;99.90
25504;DHT22;13410;52.114;5.718;2023-09-19T14:12:11;24.80;99.90
25504;DHT22;13410;52.114;5.718;2023-09-19T14:14:37;24.50;99.90
25504;DHT22;13410;52.114;5.718;2023-09-19T14:17:09;24.20;99.90
25504;DHT22;13410;52.114;5.718;2023-09-19T14:19:34;24.20;99.90
25504;DHT22;13410;52.114;5.718;2023-09-19T14:22:02;24.00;99.90
25504;DHT22;13410;52.114;5.718;2023-09-19T14:24:33;23.90;99.90
25504;DHT22;13410;52.114;5.718;2023-09-19T14:26:58;24.00;99.90
25504;DHT22;13410;52.114;5.718;2023-09-19T14:29:24;24.00;99.90
25504;DHT22;13410;52.114;5.718;2023-09-19T14:31:50;23.80;99.90
25504;DHT22;13410;52.114;5.718;2023-09-19T14:34:17;23.70;99.90
25504;DHT22;13410;52.114;5.718;2023-09-19T14:36:42;23.70;99.90
25504;DHT22;13410;52.114;5.718;2023-09-19T14:39:08;23.70;99.90
25504;DHT22;13410;52.114;5.718;2023-09-19T14:41:34;23.60;99.90
25504;DHT22;13410;52.114;5.718;2023-09-19T14:44:02;23.70;99.90
25504;DHT22;13410;52.114;5.718;2023-09-19T14:46:28;23.60;99.90
25504;DHT22;13410;52.114;5.718;2023-09-19T14:48:53;23.60;99.90
25504;DHT22;13410;52.114;5.718;2023-09-19T14:51:20;23.70;99.90
25504;DHT22;13410;52.114;5.718;2023-09-19T14:53:46;23.80;99.90
25504;DHT22;13410;52.114;5.718;2023-09-19T14:56:12;23.80;99.90
25504;DHT22;13410;52.114;5.718;2023-09-19T14:58:41;23.70;99.90
25504;DHT22;13410;52.114;5.718;2023-09-19T15:01:08;23.70;99.90
25504;DHT22;13410;52.114;5.718;2023-09-19T15:03:36;23.80;99.90
25504;DHT22;13410;52.114;5.718;2023-09-19T15:06:03;24.00;99.90
25504;DHT22;13410;52.114;5.718;2023-09-19T15:08:30;23.80;99.90
25504;DHT22;13410;52.114;5.718;2023-09-19T15:10:56;23.60;99.90
25504;DHT22;13410;52.114;5.718;2023-09-19T15:13:24;23.60;99.90
25504;DHT22;13410;52.114;5.718;2023-09-19T15:15:58;23.50;99.90
25504;DHT22;13410;52.114;5.718;2023-09-19T15:18:24;23.30;99.90
25504;DHT22;13410;52.114;5.718;2023-09-19T15:20:50;23.20;99.90
25504;DHT22;13410;52.114;5.718;2023-09-19T15:23:16;22.80;99.90
25504;DHT22;13410;52.114;5.718;2023-09-19T15:25:48;22.70;99.90
25504;DHT22;13410;52.114;5.718;2023-09-19T15:28:14;22.80;99.90
25504;DHT22;13410;52.114;5.718;2023-09-19T15:30:40;23.00;99.90
25504;DHT22;13410;52.114;5.718;2023-09-19T15:33:06;22.80;99.90
25504;DHT22;13410;52.114;5.718;2023-09-19T15:35:31;22.70;99.90
25504;DHT22;13410;52.114;5.718;2023-09-19T15:37:57;22.80;99.90
25504;DHT22;13410;52.114;5.718;2023-09-19T15:40:25;23.00;99.90
25504;DHT22;13410;52.114;5.718;2023-09-19T15:42:50;23.20;99.90
25504;DHT22;13410;52.114;5.718;2023-09-19T15:45:16;23.10;99.90
25504;DHT22;13410;52.114;5.718;2023-09-19T15:47:44;23.20;99.90
25504;DHT22;13410;52.114;5.718;2023-09-19T15:50:10;23.30;99.90
25504;DHT22;13410;52.114;5.718;2023-09-19T15:52:38;23.00;99.90
25504;DHT22;13410;52.114;5.718;2023-09-19T15:55:05;22.50;99.90
25504;DHT22;13410;52.114;5.718;2023-09-19T15:57:37;22.20;99.90
25504;DHT22;13410;52.114;5.718;2023-09-19T16:00:03;22.10;99.90
25504;DHT22;13410;52.114;5.718;2023-09-19T16:02:32;22.20;99.90
25504;DHT22;13410;52.114;5.718;2023-09-19T16:04:57;22.40;99.90
25504;DHT22;13410;52.114;5.718;2023-09-19T16:07:23;22.60;99.90
25504;DHT22;13410;52.114;5.718;2023-09-19T16:09:49;22.60;99.90
25504;DHT22;13410;52.114;5.718;2023-09-19T16:12:14;22.70;99.90
25504;DHT22;13410;52.114;5.718;2023-09-19T16:14:40;22.30;99.90
25504;DHT22;13410;52.114;5.718;2023-09-19T16:17:05;22.20;99.90
25504;DHT22;13410;52.114;5.718;2023-09-19T16:19:33;22.30;99.90
25504;DHT22;13410;52.114;5.718;2023-09-19T16:21:58;22.30;99.90
25504;DHT22;13410;52.114;5.718;2023-09-19T16:24:26;22.30;99.90
25504;DHT22;13410;52.114;5.718;2023-09-19T16:26:52;22.20;99.90
25504;DHT22;13410;52.114;5.718;2023-09-19T16:29:18;22.20;99.90